createdAt,value
2019-02-06T00:00:36.871Z,1015.71
2019-02-06T00:01:36.868Z,1015.72
2019-02-06T00:02:36.910Z,1015.69
2019-02-06T00:03:36.842Z,1015.75
2019-02-06T00:04:36.832Z,1015.72
2019-02-06T00:05:36.817Z,1015.76
2019-02-06T00:06:36.808Z,1015.84
2019-02-06T00:07:36.795Z,1015.74
2019-02-06T00:08:36.829Z,1015.76
2019-02-06T00:09:36.773Z,1015.78
2019-02-06T00:10:36.764Z,1015.73
2019-02-06T00:11:36.747Z,1015.73
2019-02-06T00:12:36.768Z,1015.80
2019-02-06T00:13:36.759Z,1015.71
2019-02-06T00:14:36.718Z,1015.74
2019-02-06T00:15:36.723Z,1015.74
2019-02-06T00:16:36.705Z,1015.69
2019-02-06T00:17:36.694Z,1015.70
2019-02-06T00:18:36.705Z,1015.67
2019-02-06T00:19:36.667Z,1015.68
2019-02-06T00:20:36.657Z,1015.64
2019-02-06T00:21:36.641Z,1015.71
2019-02-06T00:22:36.653Z,1015.70
2019-02-06T00:23:36.645Z,1015.77
2019-02-06T00:24:36.603Z,1015.76
2019-02-06T00:25:36.599Z,1015.81
2019-02-06T00:26:36.602Z,1015.86
2019-02-06T00:27:36.587Z,1015.79
2019-02-06T00:28:36.564Z,1015.80
2019-02-06T00:29:36.594Z,1015.82
2019-02-06T00:30:36.539Z,1015.76
2019-02-06T00:31:36.559Z,1015.79
2019-02-06T00:32:36.547Z,1015.81
2019-02-06T00:33:36.530Z,1015.79
2019-02-06T00:34:36.519Z,1015.79
2019-02-06T00:35:36.484Z,1015.84
2019-02-06T00:36:36.471Z,1015.82
2019-02-06T00:37:36.496Z,1015.85
2019-02-06T00:38:36.455Z,1015.90
2019-02-06T00:39:36.477Z,1015.83
2019-02-06T00:40:36.430Z,1015.87
2019-02-06T00:41:36.422Z,1015.87
2019-02-06T00:42:36.416Z,1015.83
2019-02-06T00:43:36.398Z,1015.79
2019-02-06T00:44:36.403Z,1015.76
2019-02-06T00:45:36.402Z,1015.78
2019-02-06T00:46:36.362Z,1015.77
2019-02-06T00:47:36.361Z,1015.78
2019-02-06T00:48:36.352Z,1015.78
2019-02-06T00:49:36.333Z,1015.78
2019-02-06T00:50:36.388Z,1015.78
2019-02-06T00:51:36.307Z,1015.81
2019-02-06T00:52:36.307Z,1015.71
2019-02-06T00:53:36.294Z,1015.72
2019-02-06T00:54:36.283Z,1015.70
2019-02-06T00:55:36.297Z,1015.76
2019-02-06T00:56:36.256Z,1015.68
2019-02-06T00:57:36.248Z,1015.71
2019-02-06T00:58:36.230Z,1015.68
2019-02-06T00:59:36.283Z,1015.69
2019-02-06T01:00:36.263Z,1015.68
2019-02-06T01:01:36.220Z,1015.66
2019-02-06T01:02:36.184Z,1015.63
2019-02-06T01:03:36.183Z,1015.66
2019-02-06T01:04:36.168Z,1015.65
2019-02-06T01:05:38.339Z,1015.69
2019-02-06T01:06:36.171Z,1015.68
2019-02-06T01:07:36.147Z,1015.69
2019-02-06T01:08:36.125Z,1015.65
2019-02-06T01:09:36.127Z,1015.68
2019-02-06T01:10:36.104Z,1015.73
2019-02-06T01:11:36.140Z,1015.64
2019-02-06T01:12:36.088Z,1015.62
2019-02-06T01:13:36.084Z,1015.66
2019-02-06T01:14:36.054Z,1015.69
2019-02-06T01:15:36.058Z,1015.63
2019-02-06T01:16:36.042Z,1015.57
2019-02-06T01:17:36.054Z,1015.61
2019-02-06T01:18:36.008Z,1015.61
2019-02-06T01:19:36.019Z,1015.61
2019-02-06T01:20:35.987Z,1015.59
2019-02-06T01:21:35.985Z,1015.64
2019-02-06T01:22:36.059Z,1015.64
2019-02-06T01:23:35.954Z,1015.58
2019-02-06T01:24:35.957Z,1015.56
2019-02-06T01:25:36.703Z,1015.60
2019-02-06T01:26:35.920Z,1015.61
2019-02-06T01:27:35.972Z,1015.60
2019-02-06T01:28:35.903Z,1015.58
2019-02-06T01:29:35.916Z,1015.58
2019-02-06T01:30:35.878Z,1015.65
2019-02-06T01:31:35.868Z,1015.63
2019-02-06T01:32:35.854Z,1015.60
2019-02-06T01:33:35.875Z,1015.65
2019-02-06T01:34:35.847Z,1015.61
2019-02-06T01:35:35.841Z,1015.60
2019-02-06T01:36:35.819Z,1015.57
2019-02-06T01:37:35.799Z,1015.60
2019-02-06T01:38:35.822Z,1015.58
2019-02-06T01:39:35.796Z,1015.62
2019-02-06T01:40:35.767Z,1015.61
2019-02-06T01:41:35.759Z,1015.62
2019-02-06T01:42:35.741Z,1015.71
2019-02-06T01:43:35.782Z,1015.60
2019-02-06T01:44:35.725Z,1015.52
2019-02-06T01:45:35.718Z,1015.52
2019-02-06T01:46:35.699Z,1015.56
2019-02-06T01:47:35.693Z,1015.56
2019-02-06T01:48:35.730Z,1015.49
2019-02-06T01:49:35.691Z,1015.53
2019-02-06T01:50:35.659Z,1015.48
2019-02-06T01:51:35.660Z,1015.50
2019-02-06T01:52:35.640Z,1015.49
2019-02-06T01:53:35.650Z,1015.43
2019-02-06T01:54:35.650Z,1015.44
2019-02-06T01:55:35.599Z,1015.45
2019-02-06T01:56:35.589Z,1015.41
2019-02-06T01:57:35.579Z,1015.45
2019-02-06T01:58:35.573Z,1015.42
2019-02-06T01:59:35.577Z,1015.44
2019-02-06T02:00:35.552Z,1015.46
2019-02-06T02:01:35.531Z,1015.48
2019-02-06T02:02:35.527Z,1015.48
2019-02-06T02:03:35.509Z,1015.43
2019-02-06T02:04:35.550Z,1015.48
2019-02-06T02:05:37.825Z,1015.43
2019-02-06T02:06:35.486Z,1015.44
2019-02-06T02:07:35.472Z,1015.43
2019-02-06T02:08:35.457Z,1015.46
2019-02-06T02:09:35.473Z,1015.44
2019-02-06T02:10:35.491Z,1015.51
2019-02-06T02:11:35.600Z,1015.52
2019-02-06T02:12:35.416Z,1015.46
2019-02-06T02:13:35.399Z,1015.51
2019-02-06T02:14:35.404Z,1015.49
2019-02-06T02:15:35.411Z,1015.46
2019-02-06T02:16:35.366Z,1015.46
2019-02-06T02:17:35.382Z,1015.43
2019-02-06T02:18:35.358Z,1015.46
2019-02-06T02:19:35.337Z,1015.40
2019-02-06T02:20:35.369Z,1015.46
2019-02-06T02:21:35.313Z,1015.45
2019-02-06T02:22:35.316Z,1015.46
2019-02-06T02:23:35.296Z,1015.43
2019-02-06T02:24:35.278Z,1015.41
2019-02-06T02:25:35.268Z,1015.43
2019-02-06T02:26:35.278Z,1015.37
2019-02-06T02:27:35.244Z,1015.37
2019-02-06T02:28:35.239Z,1015.38
2019-02-06T02:29:35.236Z,1015.36
2019-02-06T02:30:35.223Z,1015.32
2019-02-06T02:31:35.224Z,1015.28
2019-02-06T02:32:35.208Z,1015.28
2019-02-06T02:33:35.177Z,1015.27
2019-02-06T02:34:35.169Z,1015.28
2019-02-06T02:35:35.161Z,1015.28
2019-02-06T02:36:35.177Z,1015.28
2019-02-06T02:37:35.133Z,1015.24
2019-02-06T02:38:35.129Z,1015.26
2019-02-06T02:39:35.121Z,1015.25
2019-02-06T02:40:35.107Z,1015.22
2019-02-06T02:41:35.132Z,1015.28
2019-02-06T02:42:35.654Z,1015.25
2019-02-06T02:43:35.077Z,1015.29
2019-02-06T02:44:35.062Z,1015.26
2019-02-06T02:45:35.043Z,1015.26
2019-02-06T02:46:35.062Z,1015.28
2019-02-06T02:47:35.068Z,1015.26
2019-02-06T02:48:35.016Z,1015.29
2019-02-06T02:49:35.004Z,1015.18
2019-02-06T02:50:35.169Z,1015.29
2019-02-06T02:51:34.987Z,1015.22
2019-02-06T02:52:35.018Z,1015.21
2019-02-06T02:53:34.991Z,1015.21
2019-02-06T02:54:34.968Z,1015.22
2019-02-06T02:55:34.932Z,1015.16
2019-02-06T02:56:34.932Z,1015.20
2019-02-06T02:57:34.961Z,1015.22
2019-02-06T02:58:34.910Z,1015.22
2019-02-06T02:59:34.904Z,1015.16
2019-02-06T03:00:34.885Z,1015.12
2019-02-06T03:01:34.871Z,1015.12
2019-02-06T03:02:34.884Z,1015.21
2019-02-06T03:03:34.874Z,1015.23
2019-02-06T03:04:34.842Z,1015.22
2019-02-06T03:05:34.830Z,1015.24
2019-02-06T03:06:34.817Z,1015.20
2019-02-06T03:07:34.811Z,1015.19
2019-02-06T03:08:34.833Z,1015.22
2019-02-06T03:09:34.781Z,1015.24
2019-02-06T03:10:34.776Z,1015.19
2019-02-06T03:11:34.761Z,1015.20
2019-02-06T03:12:34.752Z,1015.17
2019-02-06T03:13:34.742Z,1015.16
2019-02-06T03:14:34.761Z,1015.16
2019-02-06T03:15:34.729Z,1015.21
2019-02-06T03:16:34.704Z,1015.19
2019-02-06T03:17:34.716Z,1015.18
2019-02-06T03:18:34.684Z,1015.11
2019-02-06T03:19:34.693Z,1015.12
2019-02-06T03:20:34.669Z,1015.10
2019-02-06T03:21:34.658Z,1015.07
2019-02-06T03:22:34.643Z,1015.07
2019-02-06T03:23:34.633Z,1015.03
2019-02-06T03:24:34.658Z,1015.07
2019-02-06T03:25:34.608Z,1014.97
2019-02-06T03:26:34.599Z,1015.01
2019-02-06T03:27:34.590Z,1015.00
2019-02-06T03:28:34.575Z,1014.97
2019-02-06T03:29:34.597Z,1015.02
2019-02-06T03:30:34.582Z,1014.99
2019-02-06T03:31:34.591Z,1014.98
2019-02-06T03:32:34.546Z,1014.93
2019-02-06T03:33:34.527Z,1014.97
2019-02-06T03:34:34.510Z,1014.96
2019-02-06T03:35:34.550Z,1015.01
2019-02-06T03:36:40.371Z,1015.01
2019-02-06T03:37:35.481Z,1015.03
2019-02-06T03:38:34.470Z,1015.02
2019-02-06T03:39:34.492Z,1014.99
2019-02-06T03:40:34.490Z,1015.03
2019-02-06T03:41:34.435Z,1015.06
2019-02-06T03:42:34.434Z,1014.98
2019-02-06T03:43:34.453Z,1015.04
2019-02-06T03:44:34.404Z,1014.95
2019-02-06T03:45:34.412Z,1014.98
2019-02-06T03:46:34.408Z,1014.98
2019-02-06T03:47:34.374Z,1014.93
2019-02-06T03:48:34.371Z,1015.01
2019-02-06T03:49:34.370Z,1014.98
2019-02-06T03:50:34.383Z,1014.91
2019-02-06T03:51:34.411Z,1014.99
2019-02-06T03:52:34.335Z,1014.98
2019-02-06T03:53:34.307Z,1015.07
2019-02-06T03:54:34.313Z,1015.05
2019-02-06T03:55:34.290Z,1015.02
2019-02-06T03:56:34.319Z,1014.94
2019-02-06T03:57:34.298Z,1014.92
2019-02-06T03:58:34.261Z,1014.92
2019-02-06T03:59:34.267Z,1014.93
2019-02-06T04:00:34.243Z,1014.94
2019-02-06T04:01:34.229Z,1014.88
2019-02-06T04:02:34.235Z,1014.97
2019-02-06T04:03:34.213Z,1014.93
2019-02-06T04:04:34.187Z,1014.93
2019-02-06T04:05:34.186Z,1014.94
2019-02-06T04:06:34.185Z,1014.95
2019-02-06T04:07:34.238Z,1014.91
2019-02-06T04:08:34.182Z,1014.85
2019-02-06T04:09:34.138Z,1014.88
2019-02-06T04:10:34.142Z,1014.88
2019-02-06T04:11:34.123Z,1014.80
2019-02-06T04:12:34.168Z,1014.83
2019-02-06T04:13:34.102Z,1014.81
2019-02-06T04:14:34.089Z,1014.89
2019-02-06T04:15:34.078Z,1014.85
2019-02-06T04:16:34.065Z,1014.80
2019-02-06T04:17:34.078Z,1014.82
2019-02-06T04:18:34.043Z,1014.77
2019-02-06T04:19:34.041Z,1014.77
2019-02-06T04:20:34.022Z,1014.78
2019-02-06T04:21:34.011Z,1014.76
2019-02-06T04:22:34.042Z,1014.72
2019-02-06T04:23:34.024Z,1014.73
2019-02-06T04:24:33.995Z,1014.69
2019-02-06T04:25:33.976Z,1014.71
2019-02-06T04:26:33.964Z,1014.73
2019-02-06T04:27:33.945Z,1014.70
2019-02-06T04:28:33.972Z,1014.72
2019-02-06T04:29:33.926Z,1014.73
2019-02-06T04:30:33.918Z,1014.72
2019-02-06T04:31:33.903Z,1014.72
2019-02-06T04:32:33.893Z,1014.74
2019-02-06T04:33:33.903Z,1014.74
2019-02-06T04:34:33.872Z,1014.74
2019-02-06T04:35:33.865Z,1014.80
2019-02-06T04:36:33.855Z,1014.77
2019-02-06T04:37:33.845Z,1014.73
2019-02-06T04:38:33.862Z,1014.80
2019-02-06T04:39:33.814Z,1014.83
2019-02-06T04:40:33.838Z,1014.75
2019-02-06T04:41:33.797Z,1014.77
2019-02-06T04:42:33.790Z,1014.72
2019-02-06T04:43:33.777Z,1014.71
2019-02-06T04:44:33.775Z,1014.73
2019-02-06T04:45:33.779Z,1014.75
2019-02-06T04:46:33.756Z,1014.74
2019-02-06T04:47:33.737Z,1014.81
2019-02-06T04:48:33.722Z,1014.78
2019-02-06T04:49:33.741Z,1014.77
2019-02-06T04:50:33.709Z,1014.79
2019-02-06T04:51:33.700Z,1014.76
2019-02-06T04:52:33.680Z,1014.78
2019-02-06T04:53:33.673Z,1014.76
2019-02-06T04:54:33.696Z,1014.76
2019-02-06T04:55:33.659Z,1014.74
2019-02-06T04:56:33.664Z,1014.77
2019-02-06T04:57:33.630Z,1014.73
2019-02-06T04:58:33.611Z,1014.76
2019-02-06T04:59:33.647Z,1014.72
2019-02-06T05:00:33.637Z,1014.75
2019-02-06T05:01:33.581Z,1014.79
2019-02-06T05:02:33.578Z,1014.76
2019-02-06T05:03:33.564Z,1014.77
2019-02-06T05:04:33.567Z,1014.78
2019-02-06T05:05:33.570Z,1014.77
2019-02-06T05:06:33.531Z,1014.75
2019-02-06T05:07:33.530Z,1014.80
2019-02-06T05:08:33.513Z,1014.76
2019-02-06T05:09:33.501Z,1014.69
2019-02-06T05:10:33.511Z,1014.75
2019-02-06T05:11:33.488Z,1014.72
2019-02-06T05:12:33.479Z,1014.70
2019-02-06T05:13:33.454Z,1014.74
2019-02-06T05:14:33.441Z,1014.76
2019-02-06T05:15:33.465Z,1014.69
2019-02-06T05:16:33.441Z,1014.74
2019-02-06T05:17:33.428Z,1014.71
2019-02-06T05:18:33.437Z,1014.76
2019-02-06T05:19:33.388Z,1014.73
2019-02-06T05:20:33.381Z,1014.74
2019-02-06T05:21:33.408Z,1014.70
2019-02-06T05:22:33.378Z,1014.68
2019-02-06T05:23:33.342Z,1014.71
2019-02-06T05:24:33.336Z,1014.82
2019-02-06T05:25:33.323Z,1014.80
2019-02-06T05:26:33.368Z,1014.76
2019-02-06T05:27:33.307Z,1014.79
2019-02-06T05:28:33.305Z,1014.79
2019-02-06T05:29:33.312Z,1014.81
2019-02-06T05:30:33.328Z,1014.76
2019-02-06T05:31:33.377Z,1014.79
2019-02-06T05:32:33.251Z,1014.82
2019-02-06T05:33:33.241Z,1014.82
2019-02-06T05:34:33.249Z,1014.85
2019-02-06T05:35:33.235Z,1014.84
2019-02-06T05:36:33.206Z,1014.84
2019-02-06T05:37:33.238Z,1014.79
2019-02-06T05:38:33.209Z,1014.81
2019-02-06T05:39:33.180Z,1014.78
2019-02-06T05:40:33.169Z,1014.82
2019-02-06T05:41:33.159Z,1014.84
2019-02-06T05:42:33.176Z,1014.82
2019-02-06T05:43:33.145Z,1014.79
2019-02-06T05:44:33.117Z,1014.83
2019-02-06T05:45:33.230Z,1014.84
2019-02-06T05:46:33.099Z,1014.85
2019-02-06T05:47:33.126Z,1014.83
2019-02-06T05:48:33.081Z,1014.82
2019-02-06T05:49:33.073Z,1014.88
2019-02-06T05:50:33.059Z,1014.83
2019-02-06T05:51:33.053Z,1014.78
2019-02-06T05:52:33.067Z,1014.82
2019-02-06T05:53:33.053Z,1014.89
2019-02-06T05:54:33.019Z,1014.87
2019-02-06T05:55:33.002Z,1014.93
2019-02-06T05:56:32.987Z,1014.89
2019-02-06T05:57:32.987Z,1014.80
2019-02-06T05:58:32.998Z,1014.89
2019-02-06T05:59:32.961Z,1014.88
2019-02-06T06:00:32.952Z,1014.81
2019-02-06T06:01:32.943Z,1014.78
2019-02-06T06:02:32.929Z,1014.78
2019-02-06T06:03:33.098Z,1014.78
2019-02-06T06:04:32.909Z,1014.77
2019-02-06T06:05:32.894Z,1014.83
2019-02-06T06:06:32.886Z,1014.82
2019-02-06T06:07:44.748Z,1014.76
2019-02-06T06:08:33.885Z,1014.83
2019-02-06T06:09:32.874Z,1014.91
2019-02-06T06:10:32.845Z,1014.80
2019-02-06T06:11:32.833Z,1014.82
2019-02-06T06:12:32.826Z,1014.79
2019-02-06T06:13:32.826Z,1014.85
2019-02-06T06:14:32.822Z,1014.81
2019-02-06T06:15:32.791Z,1014.88
2019-02-06T06:16:32.776Z,1014.88
2019-02-06T06:17:32.766Z,1014.88
2019-02-06T06:18:32.758Z,1014.83
2019-02-06T06:19:32.777Z,1014.82
2019-02-06T06:20:32.733Z,1014.79
2019-02-06T06:21:32.728Z,1014.79
2019-02-06T06:22:32.723Z,1014.85
2019-02-06T06:23:32.702Z,1014.84
2019-02-06T06:24:32.710Z,1014.78
2019-02-06T06:25:32.725Z,1014.82
2019-02-06T06:26:32.668Z,1014.72
2019-02-06T06:27:32.675Z,1014.79
2019-02-06T06:28:32.643Z,1014.76
2019-02-06T06:29:32.632Z,1014.81
2019-02-06T06:30:32.664Z,1014.80
2019-02-06T06:31:32.613Z,1014.75
2019-02-06T06:32:32.613Z,1014.77
2019-02-06T06:33:32.591Z,1014.80
2019-02-06T06:34:32.576Z,1014.75
2019-02-06T06:35:32.611Z,1014.80
2019-02-06T06:36:32.563Z,1014.71
2019-02-06T06:37:32.548Z,1014.79
2019-02-06T06:38:32.533Z,1014.79
2019-02-06T06:39:32.536Z,1014.82
2019-02-06T06:40:32.512Z,1014.79
2019-02-06T06:41:32.532Z,1014.79
2019-02-06T06:42:32.498Z,1014.80
2019-02-06T06:43:32.483Z,1014.71
2019-02-06T06:44:32.479Z,1014.70
2019-02-06T06:45:32.476Z,1014.65
2019-02-06T06:46:32.476Z,1014.68
2019-02-06T06:47:32.443Z,1014.71
2019-02-06T06:48:32.445Z,1014.74
2019-02-06T06:49:32.414Z,1014.69
2019-02-06T06:50:32.460Z,1014.74
2019-02-06T06:51:32.438Z,1014.76
2019-02-06T06:52:32.381Z,1014.76
2019-02-06T06:53:32.374Z,1014.67
2019-02-06T06:54:32.378Z,1014.72
2019-02-06T06:55:35.050Z,1014.72
2019-02-06T06:56:32.351Z,1014.69
2019-02-06T06:57:32.368Z,1014.62
2019-02-06T06:58:32.324Z,1014.63
2019-02-06T06:59:32.361Z,1014.63
2019-02-06T07:00:32.295Z,1014.55
2019-02-06T07:01:32.338Z,1014.57
2019-02-06T07:02:32.439Z,1014.53
2019-02-06T07:03:32.382Z,1014.57
2019-02-06T07:04:32.254Z,1014.51
2019-02-06T07:05:32.260Z,1014.52
2019-02-06T07:06:32.239Z,1014.41
2019-02-06T07:07:32.258Z,1014.55
2019-02-06T07:08:32.217Z,1014.48
2019-02-06T07:09:32.198Z,1014.47
2019-02-06T07:10:32.196Z,1014.44
2019-02-06T07:11:32.177Z,1014.52
2019-02-06T07:12:32.167Z,1014.57
2019-02-06T07:13:32.179Z,1014.56
2019-02-06T07:14:32.149Z,1014.46
2019-02-06T07:15:32.137Z,1014.49
2019-02-06T07:16:41.934Z,1014.50
2019-02-06T07:17:32.118Z,1014.61
2019-02-06T07:18:40.088Z,1014.59
2019-02-06T07:19:32.106Z,1014.58
2019-02-06T07:20:32.083Z,1014.62
2019-02-06T07:21:32.071Z,1014.61
2019-02-06T07:22:32.073Z,1014.60
2019-02-06T07:23:32.046Z,1014.61
2019-02-06T07:24:32.038Z,1014.62
2019-02-06T07:25:32.022Z,1014.62
2019-02-06T07:26:32.016Z,1014.61
2019-02-06T07:27:32.022Z,1014.60
2019-02-06T07:28:31.997Z,1014.56
2019-02-06T07:29:31.989Z,1014.51
2019-02-06T07:30:31.978Z,1014.54
2019-02-06T07:31:31.964Z,1014.51
2019-02-06T07:32:32.073Z,1014.46
2019-02-06T07:33:31.975Z,1014.52
2019-02-06T07:34:31.939Z,1014.56
2019-02-06T07:35:31.924Z,1014.50
2019-02-06T07:36:31.916Z,1014.45
2019-02-06T07:37:31.899Z,1014.46
2019-02-06T07:38:31.954Z,1014.44
2019-02-06T07:39:31.878Z,1014.45
2019-02-06T07:40:31.867Z,1014.46
2019-02-06T07:41:31.876Z,1014.38
2019-02-06T07:42:31.841Z,1014.39
2019-02-06T07:43:31.888Z,1014.32
2019-02-06T07:44:31.834Z,1014.45
2019-02-06T07:45:31.810Z,1014.44
2019-02-06T07:46:31.809Z,1014.42
2019-02-06T07:47:31.798Z,1014.34
2019-02-06T07:48:31.778Z,1014.35
2019-02-06T07:49:31.812Z,1014.32
2019-02-06T07:50:31.772Z,1014.33
2019-02-06T07:51:31.744Z,1014.28
2019-02-06T07:52:31.737Z,1014.30
2019-02-06T07:53:31.730Z,1014.33
2019-02-06T07:54:31.735Z,1014.36
2019-02-06T07:55:31.708Z,1014.38
2019-02-06T07:56:31.700Z,1014.32
2019-02-06T07:57:31.722Z,1014.38
2019-02-06T07:58:31.668Z,1014.31
2019-02-06T07:59:31.705Z,1014.32
2019-02-06T08:00:31.652Z,1014.29
2019-02-06T08:01:31.644Z,1014.27
2019-02-06T08:02:31.666Z,1014.24
2019-02-06T08:03:31.626Z,1014.26
2019-02-06T08:04:31.628Z,1014.27
2019-02-06T08:05:31.633Z,1014.28
2019-02-06T08:06:31.582Z,1014.13
2019-02-06T08:07:31.581Z,1014.19
2019-02-06T08:08:36.060Z,1014.19
2019-02-06T08:09:31.570Z,1014.14
2019-02-06T08:10:31.572Z,1014.14
2019-02-06T08:11:31.534Z,1014.20
2019-02-06T08:12:31.525Z,1014.18
2019-02-06T08:13:31.513Z,1014.17
2019-02-06T08:14:31.498Z,1014.22
2019-02-06T08:15:31.543Z,1014.21
2019-02-06T08:16:31.493Z,1014.19
2019-02-06T08:17:31.466Z,1014.16
2019-02-06T08:18:31.457Z,1014.21
2019-02-06T08:19:31.499Z,1014.22
2019-02-06T08:20:31.433Z,1014.22
2019-02-06T08:21:31.432Z,1014.14
2019-02-06T08:22:31.418Z,1014.20
2019-02-06T08:23:31.404Z,1014.22
2019-02-06T08:24:31.392Z,1014.18
2019-02-06T08:25:31.407Z,1014.18
2019-02-06T08:26:31.374Z,1014.26
2019-02-06T08:27:31.366Z,1014.22
2019-02-06T08:28:31.359Z,1014.24
2019-02-06T08:29:31.358Z,1014.22
2019-02-06T08:30:31.346Z,1014.20
2019-02-06T08:31:32.001Z,1014.22
2019-02-06T08:32:31.310Z,1014.16
2019-02-06T08:33:31.302Z,1014.14
2019-02-06T08:34:31.294Z,1014.22
2019-02-06T08:35:31.305Z,1014.31
2019-02-06T08:36:31.264Z,1014.25
2019-02-06T08:37:31.249Z,1014.35
2019-02-06T08:38:31.243Z,1014.27
2019-02-06T08:39:31.237Z,1014.26
2019-02-06T08:40:31.251Z,1014.24
2019-02-06T08:41:31.250Z,1014.27
2019-02-06T08:42:31.213Z,1014.23
2019-02-06T08:43:31.198Z,1014.21
2019-02-06T08:44:31.176Z,1014.21
2019-02-06T08:45:31.175Z,1014.20
2019-02-06T08:46:31.183Z,1014.24
2019-02-06T08:47:31.143Z,1014.20
2019-02-06T08:48:31.138Z,1014.19
2019-02-06T08:49:31.137Z,1014.20
2019-02-06T08:50:31.116Z,1014.19
2019-02-06T08:51:31.133Z,1014.18
2019-02-06T08:52:31.105Z,1014.15
2019-02-06T08:53:31.083Z,1014.17
2019-02-06T08:54:31.075Z,1014.20
2019-02-06T08:55:31.069Z,1014.13
2019-02-06T08:56:31.075Z,1014.19
2019-02-06T08:57:31.055Z,1014.21
2019-02-06T08:58:31.025Z,1014.23
2019-02-06T08:59:31.015Z,1014.15
2019-02-06T09:00:31.014Z,1014.17
2019-02-06T09:01:31.531Z,1014.21
2019-02-06T09:02:30.985Z,1014.11
2019-02-06T09:03:30.980Z,1014.20
2019-02-06T09:04:30.979Z,1014.18
2019-02-06T09:05:30.957Z,1014.16
2019-02-06T09:06:30.966Z,1014.15
2019-02-06T09:07:30.955Z,1014.16
2019-02-06T09:08:30.933Z,1014.10
2019-02-06T09:09:30.923Z,1014.18
2019-02-06T09:10:31.029Z,1014.11
2019-02-06T09:11:30.894Z,1014.14
2019-02-06T09:12:30.901Z,1014.09
2019-02-06T09:13:30.897Z,1014.05
2019-02-06T09:14:30.862Z,1014.09
2019-02-06T09:15:30.871Z,1014.01
2019-02-06T09:16:30.855Z,1013.98
2019-02-06T09:17:30.844Z,1014.02
2019-02-06T09:18:30.820Z,1013.95
2019-02-06T09:19:30.812Z,1014.00
2019-02-06T09:20:30.794Z,1014.00
2019-02-06T09:21:30.789Z,1014.04
2019-02-06T09:22:30.822Z,1013.95
2019-02-06T09:23:30.761Z,1013.94
2019-02-06T09:24:30.769Z,1013.90
2019-02-06T09:25:30.747Z,1013.88
2019-02-06T09:26:35.482Z,1013.89
2019-02-06T09:27:31.773Z,1013.86
2019-02-06T09:28:30.735Z,1013.81
2019-02-06T09:29:30.705Z,1013.84
2019-02-06T09:30:30.687Z,1013.78
2019-02-06T09:31:30.678Z,1013.78
2019-02-06T09:32:30.673Z,1013.84
2019-02-06T09:33:30.687Z,1013.77
2019-02-06T09:34:30.649Z,1013.77
2019-02-06T09:35:30.680Z,1013.73
2019-02-06T09:36:30.627Z,1013.75
2019-02-06T09:37:30.614Z,1013.72
2019-02-06T09:38:30.609Z,1013.75
2019-02-06T09:39:30.605Z,1013.78
2019-02-06T09:40:30.611Z,1013.80
2019-02-06T09:41:30.590Z,1013.76
2019-02-06T09:42:30.560Z,1013.74
2019-02-06T09:43:30.552Z,1013.77
2019-02-06T09:44:30.541Z,1013.76
2019-02-06T09:45:30.541Z,1013.79
2019-02-06T09:46:30.552Z,1013.81
2019-02-06T09:47:30.505Z,1013.79
2019-02-06T09:48:30.519Z,1013.83
2019-02-06T09:49:30.479Z,1013.76
2019-02-06T09:50:30.472Z,1013.79
2019-02-06T09:51:30.499Z,1013.69
2019-02-06T09:52:30.449Z,1013.75
2019-02-06T09:53:30.444Z,1013.75
2019-02-06T09:54:30.429Z,1013.72
2019-02-06T09:55:30.436Z,1013.73
2019-02-06T09:56:30.466Z,1013.74
2019-02-06T09:57:30.418Z,1013.71
2019-02-06T09:58:30.377Z,1013.70
2019-02-06T09:59:30.372Z,1013.70
2019-02-06T10:00:30.361Z,1013.64
2019-02-06T10:01:30.353Z,1013.66
2019-02-06T10:02:30.362Z,1013.68
2019-02-06T10:03:30.328Z,1013.72
2019-02-06T10:04:30.313Z,1013.70
2019-02-06T10:05:30.315Z,1013.66
2019-02-06T10:06:30.304Z,1013.68
2019-02-06T10:07:30.321Z,1013.68
2019-02-06T10:08:30.274Z,1013.69
2019-02-06T10:09:30.261Z,1013.58
2019-02-06T10:10:30.249Z,1013.59
2019-02-06T10:11:30.247Z,1013.56
2019-02-06T10:12:30.225Z,1013.53
2019-02-06T10:13:30.236Z,1013.54
2019-02-06T10:14:30.203Z,1013.55
2019-02-06T10:15:30.203Z,1013.51
2019-02-06T10:16:30.214Z,1013.49
2019-02-06T10:17:30.174Z,1013.56
2019-02-06T10:18:30.166Z,1013.53
2019-02-06T10:19:30.187Z,1013.54
2019-02-06T10:20:30.155Z,1013.56
2019-02-06T10:21:30.127Z,1013.51
2019-02-06T10:22:30.511Z,1013.55
2019-02-06T10:23:30.109Z,1013.62
2019-02-06T10:24:30.105Z,1013.51
2019-02-06T10:25:30.082Z,1013.62
2019-02-06T10:26:30.075Z,1013.61
2019-02-06T10:27:30.075Z,1013.55
2019-02-06T10:28:30.071Z,1013.57
2019-02-06T10:29:30.054Z,1013.48
2019-02-06T10:30:30.053Z,1013.51
2019-02-06T10:31:32.820Z,1013.45
2019-02-06T10:32:30.010Z,1013.50
2019-02-06T10:33:30.030Z,1013.56
2019-02-06T10:34:30.000Z,1013.44
2019-02-06T10:35:29.977Z,1013.51
2019-02-06T10:36:29.967Z,1013.49
2019-02-06T10:37:29.977Z,1013.46
2019-02-06T10:38:29.966Z,1013.45
2019-02-06T10:39:34.546Z,1013.45
2019-02-06T10:40:29.941Z,1013.35
2019-02-06T10:41:29.909Z,1013.32
2019-02-06T10:42:29.921Z,1013.34
2019-02-06T10:43:32.658Z,1013.34
2019-02-06T10:44:30.917Z,1013.28
2019-02-06T10:45:29.867Z,1013.25
2019-02-06T10:46:29.860Z,1013.29
2019-02-06T10:47:29.863Z,1013.22
2019-02-06T10:48:29.841Z,1013.25
2019-02-06T10:49:29.828Z,1013.25
2019-02-06T10:50:29.840Z,1013.17
2019-02-06T10:51:29.817Z,1013.19
2019-02-06T10:52:29.794Z,1013.12
2019-02-06T10:53:29.810Z,1013.13
2019-02-06T10:54:29.812Z,1013.11
2019-02-06T10:55:29.815Z,1013.14
2019-02-06T10:56:29.763Z,1013.14
2019-02-06T10:57:29.737Z,1013.09
2019-02-06T10:58:29.732Z,1013.08
2019-02-06T10:59:29.759Z,1013.09
2019-02-06T11:00:30.037Z,1013.10
2019-02-06T11:01:29.729Z,1013.08
2019-02-06T11:02:29.749Z,1013.05
2019-02-06T11:03:29.677Z,1013.07
2019-02-06T11:04:29.663Z,1013.06
2019-02-06T11:05:29.652Z,1012.99
2019-02-06T11:06:29.679Z,1013.02
2019-02-06T11:07:29.640Z,1012.97
2019-02-06T11:08:29.624Z,1012.96
2019-02-06T11:09:29.622Z,1012.94
2019-02-06T11:10:29.598Z,1012.96
2019-02-06T11:11:29.728Z,1012.91
2019-02-06T11:12:29.599Z,1012.92
2019-02-06T11:13:29.570Z,1012.86
2019-02-06T11:14:29.562Z,1012.81
2019-02-06T11:15:29.543Z,1012.85
2019-02-06T11:16:29.559Z,1012.78
2019-02-06T11:17:29.561Z,1012.78
2019-02-06T11:18:29.507Z,1012.76
2019-02-06T11:19:29.530Z,1012.75
2019-02-06T11:20:29.493Z,1012.81
2019-02-06T11:21:29.484Z,1012.73
2019-02-06T11:22:29.472Z,1012.82
2019-02-06T11:23:29.473Z,1012.75
2019-02-06T11:24:29.455Z,1012.76
2019-02-06T11:25:29.434Z,1012.74
2019-02-06T11:26:29.452Z,1012.75
2019-02-06T11:27:29.425Z,1012.69
2019-02-06T11:28:29.464Z,1012.66
2019-02-06T11:29:29.392Z,1012.68
2019-02-06T11:30:29.442Z,1012.67
2019-02-06T11:31:29.414Z,1012.64
2019-02-06T11:32:29.374Z,1012.64
2019-02-06T11:33:29.354Z,1012.57
2019-02-06T11:34:29.353Z,1012.59
2019-02-06T11:35:29.379Z,1012.53
2019-02-06T11:36:29.321Z,1012.54
2019-02-06T11:37:29.374Z,1012.52
2019-02-06T11:38:29.313Z,1012.48
2019-02-06T11:39:29.315Z,1012.51
2019-02-06T11:40:29.313Z,1012.44
2019-02-06T11:41:29.350Z,1012.48
2019-02-06T11:42:29.271Z,1012.41
2019-02-06T11:43:32.045Z,1012.33
2019-02-06T11:44:29.278Z,1012.33
2019-02-06T11:45:29.236Z,1012.32
2019-02-06T11:46:29.377Z,1012.34
2019-02-06T11:47:29.260Z,1012.26
2019-02-06T11:48:29.227Z,1012.28
2019-02-06T11:49:29.188Z,1012.24
2019-02-06T11:50:29.285Z,1012.28
2019-02-06T11:51:29.179Z,1012.25
2019-02-06T11:52:29.146Z,1012.19
2019-02-06T11:53:29.176Z,1012.22
2019-02-06T11:54:29.120Z,1012.20
2019-02-06T11:55:29.200Z,1012.14
2019-02-06T11:56:29.179Z,1012.17
2019-02-06T11:57:29.095Z,1012.14
2019-02-06T11:58:29.077Z,1012.14
2019-02-06T11:59:29.068Z,1012.11
2019-02-06T12:00:29.087Z,1012.11
2019-02-06T12:01:29.080Z,1012.04
2019-02-06T12:02:37.025Z,1012.02
2019-02-06T12:03:30.090Z,1012.09
2019-02-06T12:04:29.020Z,1012.02
2019-02-06T12:05:29.000Z,1012.03